Time;durP1;ratioP1;P1;durP2;ratioP2;P2;SDS_P1;SDS_P2;PMS_P1;PMS_P2;Temp;Humidity;BMP_temperature;BMP_pressure;BME280_temperature;BME280_humidity;BME280_pressure;Samples;Min_cycle;Max_cycle;Signal;HPM_P1;HPM_P2
2022/06/28 03:46:30;;;;;;;;;;;;;;;20.31;64.17;97113.88;4210923;27;10285;-74
2022/06/28 03:48:33;;;;;;;;;;;;;;;20.61;63.89;97135.00;4207866;28;6435;-72
2022/06/28 03:50:36;;;;;;;;;;;;;;;20.86;63.07;97141.78;4209584;28;6399;-72
2022/06/28 03:52:39;;;;;;;;;;;;;;;20.99;63.06;97136.00;4207036;28;5790;-72
2022/06/28 03:54:43;;;;;;;;;;;;;;;21.07;62.60;97129.38;4214464;28;5846;-74
2022/06/28 03:56:46;;;;;;;;;;;;;;;21.16;62.32;97120.59;4211841;28;5768;-74
2022/06/28 03:58:49;;;;;;;;;;;;;;;21.16;62.33;97115.22;4207128;28;6348;-74
2022/06/28 04:00:53;;;;;;;;;;;;;;;21.11;61.96;97111.69;4197811;28;5722;-73
2022/06/28 04:02:59;;;;;;;;;;;;;;;21.12;62.20;97098.00;4198309;28;5709;-73
2022/06/28 04:05:02;;;;;;;;;;;;;;;21.20;61.94;97112.88;4197861;28;5722;-73
2022/06/28 04:07:07;;;;;;;;;;;;;;;21.27;61.60;97093.84;4196710;28;5112;-73
2022/06/28 04:09:11;;;;;;;;;;;;;;;21.31;61.21;97114.63;4196878;28;5777;-72
2022/06/28 04:11:17;;;;;;;;;;;;;;;21.36;61.38;97116.53;4197034;28;6499;-72
2022/06/28 04:13:41;;;;;;;;;;;;;;;21.43;61.28;97109.91;4195608;28;5724;-72
2022/06/28 04:15:46;;;;;;;;;;;;;;;21.49;60.78;97113.44;4196540;28;5722;-73
2022/06/28 04:17:57;;;;;;;;;;;;;;;21.51;60.80;97105.91;4181907;28;6492;-73
2022/06/28 04:20:00;;;;;;;;;;;;;;;21.55;60.54;97111.63;4192756;28;5711;-72
2022/06/28 04:22:04;;;;;;;;;;;;;;;21.47;60.54;97107.50;4195766;28;6292;-73
2022/06/28 04:24:07;;;;;;;;;;;;;;;21.54;60.31;97123.44;4196753;28;5766;-73
2022/06/28 04:26:12;;;;;;;;;;;;;;;21.60;60.46;97125.09;4195795;28;5719;-73
2022/06/28 04:28:16;;;;;;;;;;;;;;;21.56;60.25;97132.88;4197756;28;5789;-73
2022/06/28 04:30:19;;;;;;;;;;;;;;;21.49;60.28;97140.34;4197786;28;5782;-73
2022/06/28 04:32:22;;;;;;;;;;;;;;;21.48;60.21;97120.69;4195658;28;5818;-73
2022/06/28 04:34:32;;;;;;;;;;;;;;;21.53;59.72;97124.53;4187260;28;5869;-72
2022/06/28 04:36:35;;;;;;;;;;;;;;;21.53;59.99;97117.25;4194752;28;5741;-73
2022/06/28 04:38:38;;;;;;;;;;;;;;;21.60;59.68;97120.53;4197225;28;5710;-73
2022/06/28 04:40:41;;;;;;;;;;;;;;;21.59;59.77;97118.91;4195988;28;5708;-73
2022/06/28 04:42:45;;;;;;;;;;;;;;;21.65;59.40;97122.47;4197500;28;6303;-73
2022/06/28 04:44:48;;;;;;;;;;;;;;;21.67;59.40;97117.66;4199588;28;5701;-73
2022/06/28 04:46:51;;;;;;;;;;;;;;;21.65;59.21;97123.28;4199028;28;5802;-73
2022/06/28 04:48:54;;;;;;;;;;;;;;;21.66;59.39;97118.72;4198978;28;5769;-72
2022/06/28 04:51:10;;;;;;;;;;;;;;;21.69;58.93;97127.06;4202016;28;5754;-72
2022/06/28 04:53:14;;;;;;;;;;;;;;;21.76;59.10;97130.38;4196333;28;5635;-72
2022/06/28 04:55:19;;;;;;;;;;;;;;;21.82;59.03;97131.22;4202158;28;5737;-72
2022/06/28 04:57:23;;;;;;;;;;;;;;;21.83;58.64;97138.22;4200101;28;5097;-73
2022/06/28 04:59:25;;;;;;;;;;;;;;;21.84;58.95;97152.50;4200263;28;5807;-73
2022/06/28 05:01:28;;;;;;;;;;;;;;;21.82;58.48;97155.44;4199129;28;5631;-73
2022/06/28 05:03:31;;;;;;;;;;;;;;;21.80;58.32;97144.13;4201208;28;5089;-73
2022/06/28 05:05:34;;;;;;;;;;;;;;;21.71;58.44;97159.91;4199667;28;5663;-73
2022/06/28 05:07:39;;;;;;;;;;;;;;;21.78;58.49;97160.53;4197983;28;5766;-73
2022/06/28 05:09:42;;;;;;;;;;;;;;;21.86;58.34;97172.72;4200864;28;5647;-73
2022/06/28 05:11:45;;;;;;;;;;;;;;;21.83;58.24;97178.59;4202051;28;5682;-73
2022/06/28 05:13:48;;;;;;;;;;;;;;;21.90;58.27;97173.81;4195556;28;5631;-73
2022/06/28 05:15:51;;;;;;;;;;;;;;;21.94;57.79;97185.69;4202686;28;5630;-73
2022/06/28 05:17:53;;;;;;;;;;;;;;;21.97;57.77;97187.06;4202089;28;6282;-73
2022/06/28 05:19:56;;;;;;;;;;;;;;;21.98;57.45;97181.44;4202810;28;5898;-73
2022/06/28 05:21:59;;;;;;;;;;;;;;;22.08;57.72;97186.94;4201837;28;5726;-73
2022/06/28 05:24:04;;;;;;;;;;;;;;;22.04;57.13;97171.50;4184637;28;5718;-73
2022/06/28 05:26:07;;;;;;;;;;;;;;;21.98;57.62;97169.88;4201893;28;5705;-74
2022/06/28 05:28:15;;;;;;;;;;;;;;;22.00;57.54;97160.44;4202467;28;5081;-73
2022/06/28 05:30:19;;;;;;;;;;;;;;;22.08;57.55;97186.09;4200214;28;5646;-74
2022/06/28 05:32:22;;;;;;;;;;;;;;;22.15;57.38;97185.91;4201972;28;5631;-73
2022/06/28 05:34:25;;;;;;;;;;;;;;;22.22;56.78;97197.28;4200536;28;5722;-71
2022/06/28 05:36:28;;;;;;;;;;;;;;;22.26;57.19;97183.03;4197868;28;5678;-73
2022/06/28 05:38:31;;;;;;;;;;;;;;;22.16;57.24;97165.97;4202296;28;5718;-73
2022/06/28 05:40:36;;;;;;;;;;;;;;;22.03;57.27;97151.03;4202607;28;5643;-74
2022/06/28 05:42:39;;;;;;;;;;;;;;;22.00;57.23;97152.38;4199744;28;5646;-73
2022/06/28 05:44:42;;;;;;;;;;;;;;;22.00;57.35;97140.78;4195121;28;5630;-73
2022/06/28 05:46:45;;;;;;;;;;;;;;;22.07;56.86;97126.06;4201007;28;7688;-73
2022/06/28 05:48:49;;;;;;;;;;;;;;;22.12;57.17;97119.09;4187488;28;5649;-73
2022/06/28 05:50:53;;;;;;;;;;;;;;;22.17;56.97;97113.75;4198008;28;5733;-73
2022/06/28 05:52:56;;;;;;;;;;;;;;;22.14;56.81;97116.97;4183993;28;5797;-73
2022/06/28 05:54:59;;;;;;;;;;;;;;;22.17;57.01;97111.06;4201270;28;5619;-72
2022/06/28 05:57:04;;;;;;;;;;;;;;;22.23;56.91;97107.34;4195618;28;6311;-72
2022/06/28 05:59:07;;;;;;;;;;;;;;;22.20;56.73;97122.13;4182618;28;5825;-73
2022/06/28 06:01:09;;;;;;;;;;;;;;;22.27;56.47;97129.97;4200731;28;6324;-73
2022/06/28 06:03:12;;;;;;;;;;;;;;;22.29;56.59;97138.59;4199262;28;6456;-72
2022/06/28 06:05:16;;;;;;;;;;;;;;;22.44;56.22;97144.09;4201223;28;5693;-73
2022/06/28 06:07:20;;;;;;;;;;;;;;;22.56;55.90;97138.50;4194370;28;5673;-73
2022/06/28 06:09:23;;;;;;;;;;;;;;;22.68;56.02;97133.72;4201706;28;5709;-73
2022/06/28 06:11:26;;;;;;;;;;;;;;;22.86;55.41;97132.47;4200489;28;5791;-73
2022/06/28 06:13:31;;;;;;;;;;;;;;;23.03;55.29;97134.97;4200669;28;5818;-72
2022/06/28 06:15:34;;;;;;;;;;;;;;;23.17;55.14;97147.69;4200305;28;5624;-73
2022/06/28 06:17:37;;;;;;;;;;;;;;;23.31;54.97;97133.69;4195774;28;5804;-73
2022/06/28 06:19:42;;;;;;;;;;;;;;;23.42;55.05;97138.03;4199736;28;5117;-73
2022/06/28 06:21:46;;;;;;;;;;;;;;;23.46;55.17;97120.25;4201188;28;5708;-72
2022/06/28 06:23:49;;;;;;;;;;;;;;;23.46;54.79;97131.06;4199176;28;5746;-73
2022/06/28 06:25:52;;;;;;;;;;;;;;;23.47;54.80;97148.88;4200051;28;5615;-73
2022/06/28 06:27:57;;;;;;;;;;;;;;;23.48;54.98;97150.47;4200650;28;5626;-73
2022/06/28 06:30:01;;;;;;;;;;;;;;;23.38;54.91;97145.06;4194485;28;5548;-73
2022/06/28 06:32:05;;;;;;;;;;;;;;;23.30;55.14;97161.75;4203048;28;5635;-73
2022/06/28 06:34:08;;;;;;;;;;;;;;;23.30;55.21;97165.25;4204476;28;5707;-73
2022/06/28 06:36:18;;;;;;;;;;;;;;;23.35;54.70;97168.00;4197423;28;5544;-73
2022/06/28 06:38:21;;;;;;;;;;;;;;;23.43;54.76;97169.34;4199805;28;5623;-74
2022/06/28 06:40:24;;;;;;;;;;;;;;;23.54;54.39;97161.00;4199216;28;5668;-74
2022/06/28 06:42:27;;;;;;;;;;;;;;;23.63;54.07;97155.94;4203376;28;5651;-71
2022/06/28 06:44:30;;;;;;;;;;;;;;;23.75;54.00;97142.97;4184455;28;5677;-80
2022/06/28 06:46:36;;;;;;;;;;;;;;;23.90;53.49;97147.59;4195042;28;5619;-80
2022/06/28 06:48:39;;;;;;;;;;;;;;;23.95;53.48;97149.47;4199744;28;6368;-79
2022/06/28 06:50:42;;;;;;;;;;;;;;;24.07;53.52;97152.72;4199542;28;5747;-79
2022/06/28 06:52:45;;;;;;;;;;;;;;;24.21;53.18;97148.38;4198307;28;5627;-84
2022/06/28 06:54:48;;;;;;;;;;;;;;;24.25;53.16;97132.47;4200398;28;5632;-77
2022/06/28 06:56:55;;;;;;;;;;;;;;;24.16;53.43;97137.59;4200771;28;5741;-77
2022/06/28 06:58:58;;;;;;;;;;;;;;;24.22;53.50;97133.78;4199091;28;6364;-77
2022/06/28 07:01:01;;;;;;;;;;;;;;;24.39;53.13;97139.75;4199910;28;5791;-77
2022/06/28 07:03:25;;;;;;;;;;;;;;;24.45;52.69;97147.84;4200121;28;5784;-76
2022/06/28 07:05:28;;;;;;;;;;;;;;;24.39;52.56;97142.47;4200539;28;5726;-75
2022/06/28 07:07:31;;;;;;;;;;;;;;;24.32;53.08;97141.91;4200788;28;5726;-76
2022/06/28 07:09:34;;;;;;;;;;;;;;;24.26;52.68;97148.41;4199030;28;5615;-76
2022/06/28 07:11:37;;;;;;;;;;;;;;;24.15;52.97;97138.69;4199456;28;5619;-75
2022/06/28 07:13:41;;;;;;;;;;;;;;;24.09;53.05;97137.03;4194442;28;5647;-75
2022/06/28 07:15:43;;;;;;;;;;;;;;;24.09;52.75;97137.03;4198872;28;5627;-76
2022/06/28 07:17:47;;;;;;;;;;;;;;;24.09;52.80;97140.56;4200000;28;5722;-77
2022/06/28 07:19:51;;;;;;;;;;;;;;;24.06;52.94;97124.09;4199404;28;6470;-79
2022/06/28 07:21:54;;;;;;;;;;;;;;;24.09;52.77;97131.66;4182798;28;6504;-87
2022/06/28 07:23:57;;;;;;;;;;;;;;;24.09;52.61;97134.34;4201070;28;5671;-81
2022/06/28 07:26:00;;;;;;;;;;;;;;;24.04;52.31;97121.66;4200229;28;6487;-84
2022/06/28 07:28:03;;;;;;;;;;;;;;;23.99;52.78;97118.16;4199182;28;5804;-85
2022/06/28 07:30:07;;;;;;;;;;;;;;;23.99;52.27;97110.03;4199117;28;5635;-83
2022/06/28 07:32:10;;;;;;;;;;;;;;;23.96;52.57;97089.00;4201546;28;5689;-88
2022/06/28 07:34:13;;;;;;;;;;;;;;;23.96;52.18;97087.09;4199849;28;6325;-89
2022/06/28 07:36:17;;;;;;;;;;;;;;;23.98;52.37;97092.22;4199783;28;6348;-77
2022/06/28 07:38:20;;;;;;;;;;;;;;;23.98;52.46;97089.53;4200743;28;5754;-71
2022/06/28 07:40:24;;;;;;;;;;;;;;;23.93;52.51;97086.84;4198032;28;5742;-75
2022/06/28 07:42:27;;;;;;;;;;;;;;;23.92;52.19;97077.94;4198340;28;5654;-76
2022/06/28 07:44:30;;;;;;;;;;;;;;;23.93;52.15;97065.25;4196939;28;6234;-73
2022/06/28 07:46:33;;;;;;;;;;;;;;;23.95;52.16;97063.06;4199223;28;5635;-74
2022/06/28 07:48:36;;;;;;;;;;;;;;;23.98;52.40;97067.94;4199200;28;5619;-75
2022/06/28 07:53:02;;;;;;;;;;;;;;;24.02;52.06;97066.31;4200491;28;5705;-77
2022/06/28 07:55:07;;;;;;;;;;;;;;;24.04;51.89;97066.84;4200517;28;5627;-83
2022/06/28 07:57:10;;;;;;;;;;;;;;;24.08;51.96;97068.72;4200501;28;5767;-78
2022/06/28 07:59:13;;;;;;;;;;;;;;;24.08;52.03;97068.72;4199003;28;5639;-76
2022/06/28 08:01:16;;;;;;;;;;;;;;;24.09;51.76;97072.22;4198627;28;6676;-73
2022/06/28 08:03:20;;;;;;;;;;;;;;;24.09;52.06;97064.94;4197275;28;5646;-79
2022/06/28 08:05:23;;;;;;;;;;;;;;;24.05;51.80;97063.06;4181648;28;5718;-81
2022/06/28 08:07:26;;;;;;;;;;;;;;;23.96;51.57;97060.09;4182537;28;5715;-77
2022/06/28 08:09:31;;;;;;;;;;;;;;;23.87;51.96;97066.31;4200063;28;5773;-85
2022/06/28 08:11:34;;;;;;;;;;;;;;;23.81;52.01;97062.81;4200171;28;5644;-73
2022/06/28 08:13:37;;;;;;;;;;;;;;;23.76;52.01;97055.53;4198671;28;5652;-77
2022/06/28 08:15:40;;;;;;;;;;;;;;;23.77;52.26;97059.84;4199682;28;5768;-77
2022/06/28 08:17:43;;;;;;;;;;;;;;;23.81;51.90;97054.72;4199820;28;5687;-77
2022/06/28 08:19:46;;;;;;;;;;;;;;;23.88;51.85;97051.72;4200842;28;5713;-77
2022/06/28 08:21:50;;;;;;;;;;;;;;;23.86;51.89;97060.09;4201368;28;5872;-75
2022/06/28 08:23:53;;;;;;;;;;;;;;;23.88;52.07;97057.94;4202452;28;5702;-73
2022/06/28 08:25:57;;;;;;;;;;;;;;;23.84;52.00;97056.88;4197200;28;5815;-77
2022/06/28 08:28:00;;;;;;;;;;;;;;;23.85;51.81;97063.09;4201964;28;5857;-79
2022/06/28 08:30:04;;;;;;;;;;;;;;;23.90;51.67;97055.81;4202337;28;5778;-74
2022/06/28 08:32:08;;;;;;;;;;;;;;;23.98;51.58;97049.03;4202907;28;5644;-73
2022/06/28 08:34:11;;;;;;;;;;;;;;;24.04;51.81;97050.66;4202137;28;5647;-73
2022/06/28 08:36:15;;;;;;;;;;;;;;;24.08;51.73;97051.72;4201895;28;5734;-76
2022/06/28 08:38:17;;;;;;;;;;;;;;;24.12;51.47;97052.78;4205625;28;5646;-83
2022/06/28 08:40:22;;;;;;;;;;;;;;;24.17;51.82;97049.28;4202698;28;5655;-72
2022/06/28 08:42:28;;;;;;;;;;;;;;;24.26;51.35;97048.44;4201708;28;5729;-81
2022/06/28 08:44:33;;;;;;;;;;;;;;;24.33;51.72;97048.97;4199559;28;5693;-72
2022/06/28 08:46:37;;;;;;;;;;;;;;;24.38;51.60;97056.28;4203191;28;5630;-71
2022/06/28 08:48:43;;;;;;;;;;;;;;;24.37;51.70;97041.94;4204061;28;5184;-70
2022/06/28 08:50:51;;;;;;;;;;;;;;;24.39;51.42;97038.97;4201947;28;5615;-70
2022/06/28 08:52:55;;;;;;;;;;;;;;;24.42;51.89;97035.72;4202284;28;5646;-70
2022/06/28 08:55:00;;;;;;;;;;;;;;;24.45;51.70;97034.34;4201563;28;5643;-70
2022/06/28 08:57:06;;;;;;;;;;;;;;;24.46;51.59;97036.75;4202773;28;5679;-71
2022/06/28 08:59:11;;;;;;;;;;;;;;;24.48;51.49;97039.22;4202321;28;5831;-73
2022/06/28 09:01:14;;;;;;;;;;;;;;;24.47;51.58;97040.31;4185406;28;5718;-77
2022/06/28 09:03:19;;;;;;;;;;;;;;;24.41;51.70;97038.69;4222233;28;5635;-78
2022/06/28 09:05:23;;;;;;;;;;;;;;;24.39;51.42;97041.69;4200889;28;6153;-77
2022/06/28 09:07:27;;;;;;;;;;;;;;;24.39;51.53;97042.47;4201563;28;5735;-78
2022/06/28 09:09:30;;;;;;;;;;;;;;;24.41;51.56;97027.88;4198574;28;5706;-77
2022/06/28 09:11:40;;;;;;;;;;;;;;;24.37;51.64;97028.44;4201742;28;5627;-77
2022/06/28 09:13:44;;;;;;;;;;;;;;;24.41;51.90;97022.47;4203957;28;5647;-77
2022/06/28 09:16:02;;;;;;;;;;;;;;;24.45;51.77;97024.34;4205139;28;5619;-78
2022/06/28 09:18:05;;;;;;;;;;;;;;;24.51;51.49;97027.84;4202712;28;5714;-77
2022/06/28 09:20:10;;;;;;;;;;;;;;;24.53;51.84;97037.28;4185602;28;5833;-77
2022/06/28 09:22:28;;;;;;;;;;;;;;;24.55;51.41;97024.31;4203482;28;5741;-77
2022/06/28 09:24:34;;;;;;;;;;;;;;;24.55;51.88;97018.09;4203059;28;5707;-77
2022/06/28 09:26:37;;;;;;;;;;;;;;;24.50;51.60;97010.03;4201663;28;6153;-77
2022/06/28 09:28:41;;;;;;;;;;;;;;;24.46;51.72;97003.53;4203948;28;5765;-78
2022/06/28 09:30:44;;;;;;;;;;;;;;;24.49;51.81;97000.31;4203890;28;5714;-77
2022/06/28 09:32:49;;;;;;;;;;;;;;;24.55;51.62;96993.78;4203675;28;5717;-78
2022/06/28 09:34:55;;;;;;;;;;;;;;;24.59;51.91;96992.94;4200256;28;5638;-77
2022/06/28 09:36:58;;;;;;;;;;;;;;;24.63;51.70;96976.97;4200419;28;5082;-78
2022/06/28 09:39:11;;;;;;;;;;;;;;;24.64;51.61;96984.00;4202294;28;5655;-78
2022/06/28 09:41:25;;;;;;;;;;;;;;;24.66;51.44;96985.31;4199825;28;5646;-78
2022/06/28 09:43:32;;;;;;;;;;;;;;;24.63;51.24;96977.78;4197279;28;5635;-77
2022/06/28 09:45:37;;;;;;;;;;;;;;;24.65;51.86;96991.03;4200839;28;5780;-78
2022/06/28 09:47:46;;;;;;;;;;;;;;;24.65;51.50;96997.22;4204282;28;5643;-76
2022/06/28 09:50:10;;;;;;;;;;;;;;;24.66;51.49;96998.84;4204457;28;5631;-79
2022/06/28 09:52:15;;;;;;;;;;;;;;;24.70;51.77;97001.81;4203830;28;5631;-78
2022/06/28 09:54:24;;;;;;;;;;;;;;;24.72;51.68;97002.34;4183990;28;5765;-76
2022/06/28 09:56:28;;;;;;;;;;;;;;;24.74;51.47;97010.97;4200600;28;5816;-75
2022/06/28 09:58:31;;;;;;;;;;;;;;;24.79;51.24;97002.84;4202146;28;5764;-76
2022/06/28 10:00:39;;;;;;;;;;;;;;;24.88;51.48;97001.16;4198617;28;6324;-75
2022/06/28 10:02:44;;;;;;;;;;;;;;;24.91;51.18;96983.56;4200992;28;5650;-76
2022/06/28 10:04:47;;;;;;;;;;;;;;;24.88;51.06;96976.03;4179987;28;6348;-76
2022/06/28 10:06:52;;;;;;;;;;;;;;;24.88;51.41;96967.91;4200528;28;5650;-76
2022/06/28 10:08:55;;;;;;;;;;;;;;;24.85;51.30;96969.28;4201136;28;5347;-77
2022/06/28 10:10:58;;;;;;;;;;;;;;;24.84;51.31;96962.25;4201115;28;5799;-73
2022/06/28 10:15:53;;;;;;;;;;;;;;;24.91;51.22;96943.81;4186949;28;6513;-74
2022/06/28 10:17:59;;;;;;;;;;;;;;;24.94;50.90;96947.88;4186827;28;5804;-72
2022/06/28 10:20:04;;;;;;;;;;;;;;;24.96;51.07;96943.78;4198707;28;5789;-71
2022/06/28 10:22:10;;;;;;;;;;;;;;;25.04;50.84;96945.13;4195604;28;5645;-72
2022/06/28 10:24:14;;;;;;;;;;;;;;;25.09;51.20;96936.16;4193833;28;5745;-73
2022/06/28 10:26:22;;;;;;;;;;;;;;;25.12;50.80;96930.97;4199473;28;5777;-72
2022/06/28 10:28:27;;;;;;;;;;;;;;;25.13;50.95;96931.78;4201437;28;5646;-73
2022/06/28 10:30:31;;;;;;;;;;;;;;;25.20;50.97;96932.28;4200231;28;5798;-73
2022/06/28 10:32:40;;;;;;;;;;;;;;;25.26;50.47;96936.56;4200441;28;5631;-72
2022/06/28 10:34:51;;;;;;;;;;;;;;;25.26;50.85;96925.75;4198527;28;7167;-73
2022/06/28 10:36:56;;;;;;;;;;;;;;;25.27;50.35;96931.97;4198930;28;5655;-74
2022/06/28 10:39:18;;;;;;;;;;;;;;;25.28;50.50;96942.50;4200763;28;6611;-73
2022/06/28 10:41:37;;;;;;;;;;;;;;;25.28;50.75;96945.19;4192982;28;5631;-73
2022/06/28 10:43:50;;;;;;;;;;;;;;;25.23;50.85;96946.03;4200881;28;5705;-73
2022/06/28 10:46:08;;;;;;;;;;;;;;;25.18;50.36;96934.47;4198839;28;5849;-77
2022/06/28 10:48:12;;;;;;;;;;;;;;;25.14;51.02;96934.22;4198410;28;7672;-77
2022/06/28 10:50:16;;;;;;;;;;;;;;;25.14;50.66;96930.69;4200778;28;5620;-75
2022/06/28 10:52:23;;;;;;;;;;;;;;;25.14;50.44;96922.56;4182857;28;6229;-72
2022/06/28 10:54:27;;;;;;;;;;;;;;;25.15;50.61;96925.03;4199899;28;5631;-72
2022/06/28 10:56:31;;;;;;;;;;;;;;;25.15;50.70;96933.13;4200663;28;5631;-73
2022/06/28 10:58:34;;;;;;;;;;;;;;;25.14;50.57;96927.97;4200216;28;6335;-73
2022/06/28 11:00:52;;;;;;;;;;;;;;;25.14;50.94;96920.72;4184587;28;5630;-75
2022/06/28 11:03:03;;;;;;;;;;;;;;;25.13;50.44;96927.19;4199987;28;5638;-73
2022/06/28 11:05:09;;;;;;;;;;;;;;;25.13;51.01;96923.66;4198806;28;5757;-73
2022/06/28 11:07:23;;;;;;;;;;;;;;;25.14;50.71;96927.97;4199805;28;5639;-76
2022/06/28 11:09:47;;;;;;;;;;;;;;;25.14;50.87;96922.56;4182447;28;6785;-78
2022/06/28 11:12:07;;;;;;;;;;;;;;;25.13;50.47;96926.38;4200509;28;5647;-79
2022/06/28 11:14:46;;;;;;;;;;;;;;;25.11;50.53;96917.75;4182176;28;5714;-80
2022/06/28 11:16:49;;;;;;;;;;;;;;;25.13;50.65;96915.56;4139248;28;5783;-79
2022/06/28 11:19:06;;;;;;;;;;;;;;;25.12;50.50;96916.66;4148821;28;5828;-79
2022/06/28 11:21:09;;;;;;;;;;;;;;;25.07;50.97;96916.69;4132871;28;5723;-79
2022/06/28 11:23:23;;;;;;;;;;;;;;;25.09;50.79;96911.81;4139003;28;5719;-78
2022/06/28 11:27:19;;;;;;;;;;;;;;;25.06;50.54;96909.69;4148692;28;5748;-74
2022/06/28 11:27:56;;;;;;;;;;;;;;;25.07;50.60;96905.88;4146144;28;5611;-75
2022/06/28 11:30:07;;;;;;;;;;;;;;;25.07;51.04;96897.75;4153697;28;5727;-78
2022/06/28 11:32:18;;;;;;;;;;;;;;;25.08;50.63;96889.38;4147575;28;5707;-73
2022/06/28 11:34:25;;;;;;;;;;;;;;;25.09;50.99;96887.47;4127753;28;5740;-72
2022/06/28 11:36:31;;;;;;;;;;;;;;;25.12;50.77;96892.31;4134922;28;5732;-72
2022/06/28 11:38:34;;;;;;;;;;;;;;;25.17;50.86;96881.44;4132850;28;5842;-72
2022/06/28 11:40:44;;;;;;;;;;;;;;;25.21;50.57;96879.78;4133003;28;5789;-72
2022/06/28 11:42:49;;;;;;;;;;;;;;;25.22;50.80;96878.69;4145403;28;5712;-84
2022/06/28 11:44:52;;;;;;;;;;;;;;;25.21;50.72;96880.59;4131453;28;5722;-81
2022/06/28 11:46:55;;;;;;;;;;;;;;;25.21;50.71;96879.78;4148843;28;5766;-78
2022/06/28 11:48:59;;;;;;;;;;;;;;;25.24;50.77;96880.00;4148425;28;5704;-79
2022/06/28 11:51:09;;;;;;;;;;;;;;;25.27;50.63;96883.25;4148184;28;5727;-72
2022/06/28 11:53:14;;;;;;;;;;;;;;;25.25;51.05;96892.44;4172059;28;5727;-74
2022/06/28 11:55:35;;;;;;;;;;;;;;;25.23;51.18;96883.00;4176330;28;5666;-71
2022/06/28 11:57:40;;;;;;;;;;;;;;;25.30;50.81;96869.16;4185300;28;6226;-84
2022/06/28 11:59:54;;;;;;;;;;;;;;;25.31;51.08;96866.16;4187932;28;5718;-80
2022/06/28 12:01:57;;;;;;;;;;;;;;;25.35;50.79;96877.22;4184540;28;5722;-78
2022/06/28 12:04:02;;;;;;;;;;;;;;;25.37;51.22;96872.31;4186604;28;5722;-70
2022/06/28 12:06:05;;;;;;;;;;;;;;;25.36;51.14;96871.50;4176584;28;5849;-70
2022/06/28 12:08:09;;;;;;;;;;;;;;;25.39;50.90;96864.75;4186807;28;5726;-71
2022/06/28 12:10:24;;;;;;;;;;;;;;;25.39;51.21;96862.84;4187603;28;5681;-70
2022/06/28 12:12:27;;;;;;;;;;;;;;;25.37;51.19;96867.75;4184080;28;5714;-74
2022/06/28 12:14:34;;;;;;;;;;;;;;;25.36;51.03;96852.56;4185180;28;5726;-73
2022/06/28 12:16:38;;;;;;;;;;;;;;;25.34;51.03;96857.47;4185596;28;5201;-73
2022/06/28 12:18:52;;;;;;;;;;;;;;;25.31;51.18;96855.34;4187146;28;5698;-74
2022/06/28 12:20:58;;;;;;;;;;;;;;;25.27;51.21;96857.00;4185239;28;5830;-72
2022/06/28 12:23:04;;;;;;;;;;;;;;;25.27;51.52;96851.59;4187073;28;5703;-82
2022/06/28 12:25:10;;;;;;;;;;;;;;;25.33;51.61;96855.84;4187030;28;5710;-82
2022/06/28 12:27:14;;;;;;;;;;;;;;;25.37;51.25;96847.97;4183570;28;5743;-77
2022/06/28 12:29:17;;;;;;;;;;;;;;;25.37;51.37;96846.09;4177478;28;5739;-79
2022/06/28 12:31:21;;;;;;;;;;;;;;;25.33;51.45;96834.22;4185011;28;5695;-74
2022/06/28 12:33:25;;;;;;;;;;;;;;;25.30;51.39;96845.59;4186602;28;5782;-75
2022/06/28 12:35:28;;;;;;;;;;;;;;;25.31;51.63;96836.41;4186116;28;5715;-75
2022/06/28 12:37:31;;;;;;;;;;;;;;;25.32;51.84;96848.81;4177536;28;5881;-75
2022/06/28 12:39:34;;;;;;;;;;;;;;;25.32;51.51;96840.72;4183978;28;5737;-75
2022/06/28 12:41:37;;;;;;;;;;;;;;;25.33;51.57;96845.03;4185377;28;5802;-75
2022/06/28 12:43:41;;;;;;;;;;;;;;;25.33;51.55;96834.22;4184822;28;6833;-75
2022/06/28 12:45:44;;;;;;;;;;;;;;;25.30;51.60;96836.69;4195741;28;5848;-74
2022/06/28 12:47:49;;;;;;;;;;;;;;;25.29;51.71;96841.28;4201357;28;5646;-70
2022/06/28 12:49:52;;;;;;;;;;;;;;;25.30;51.98;96832.09;4202180;28;5638;-73
2022/06/28 12:51:55;;;;;;;;;;;;;;;25.27;51.89;96834.56;4200923;28;5623;-73
2022/06/28 12:53:57;;;;;;;;;;;;;;;25.18;51.50;96845.19;4202571;28;5709;-75
2022/06/28 12:56:00;;;;;;;;;;;;;;;25.17;51.33;96840.88;4203221;28;5776;-73
2022/06/28 12:58:03;;;;;;;;;;;;;;;25.11;51.52;96842.00;4202513;28;5647;-73
2022/06/28 13:00:10;;;;;;;;;;;;;;;25.12;51.21;96833.59;4202445;28;5627;-73
2022/06/28 13:02:13;;;;;;;;;;;;;;;25.18;51.51;96837.06;4202080;28;5696;-72
2022/06/28 13:04:18;;;;;;;;;;;;;;;25.21;51.13;96825.69;4195751;28;5842;-74
2022/06/28 13:06:22;;;;;;;;;;;;;;;25.16;51.44;96829.25;4200487;28;6644;-74
2022/06/28 13:08:25;;;;;;;;;;;;;;;25.10;51.26;96829.56;4185645;28;5929;-73
2022/06/28 13:10:27;;;;;;;;;;;;;;;25.06;51.28;96842.06;4200095;28;5616;-72
2022/06/28 13:12:30;;;;;;;;;;;;;;;24.93;51.46;96833.50;4201315;28;7788;-78
2022/06/28 13:14:33;;;;;;;;;;;;;;;24.90;51.20;96833.22;4201346;28;5772;-75
2022/06/28 13:16:36;;;;;;;;;;;;;;;24.88;51.47;96830.81;4202052;28;5760;-75
2022/06/28 13:18:42;;;;;;;;;;;;;;;24.87;51.37;96833.81;4202806;28;5642;-72
2022/06/28 13:20:46;;;;;;;;;;;;;;;24.85;50.89;96836.78;4189190;28;5754;-71
2022/06/28 13:22:52;;;;;;;;;;;;;;;24.82;51.15;96842.78;4201781;28;5643;-73
2022/06/28 13:24:55;;;;;;;;;;;;;;;24.81;50.82;96841.16;4200727;28;5651;-73
2022/06/28 13:27:03;;;;;;;;;;;;;;;24.82;50.70;96848.19;4202054;28;5642;-75
2022/06/28 13:29:06;;;;;;;;;;;;;;;24.87;50.88;96853.53;4202285;28;5707;-77
2022/06/28 13:31:09;;;;;;;;;;;;;;;24.82;50.86;96840.06;4200381;28;5646;-77
2022/06/28 13:33:13;;;;;;;;;;;;;;;24.81;50.80;96846.56;4183884;28;5813;-78
2022/06/28 13:35:16;;;;;;;;;;;;;;;24.82;50.93;96834.66;4183224;28;5948;-76
2022/06/28 13:37:21;;;;;;;;;;;;;;;24.78;50.92;96841.72;4197526;28;5973;-76
2022/06/28 13:39:24;;;;;;;;;;;;;;;24.70;50.77;96839.63;4201636;28;5658;-77
2022/06/28 13:41:27;;;;;;;;;;;;;;;24.67;50.54;96843.69;4188269;28;5705;-73
2022/06/28 13:43:38;;;;;;;;;;;;;;;24.65;50.86;96834.25;4202647;28;5647;-72
2022/06/28 13:45:41;;;;;;;;;;;;;;;24.60;50.53;96828.91;4200696;28;5626;-73
2022/06/28 13:47:44;;;;;;;;;;;;;;;24.57;50.47;96832.94;4200287;28;5642;-74
2022/06/28 13:49:47;;;;;;;;;;;;;;;24.59;50.60;96824.56;4202078;28;5710;-75
2022/06/28 13:51:50;;;;;;;;;;;;;;;24.56;50.93;96835.94;4200754;28;5872;-74
2022/06/28 13:53:55;;;;;;;;;;;;;;;24.55;50.76;96834.31;4200111;28;5819;-76
2022/06/28 13:55:59;;;;;;;;;;;;;;;24.50;50.77;96832.47;4198394;28;5630;-82
2022/06/28 13:58:02;;;;;;;;;;;;;;;24.48;50.97;96828.44;4200388;28;7668;-83
2022/06/28 14:00:08;;;;;;;;;;;;;;;24.45;51.05;96839.78;4201865;28;5740;-81
2022/06/28 14:02:11;;;;;;;;;;;;;;;24.43;50.82;96841.97;4201390;28;5789;-81
2022/06/28 14:04:14;;;;;;;;;;;;;;;24.44;50.92;96849.00;4201750;28;5615;-79
2022/06/28 14:06:18;;;;;;;;;;;;;;;24.43;50.86;96848.19;4201202;28;6302;-80
2022/06/28 14:08:22;;;;;;;;;;;;;;;24.39;50.64;96839.84;4201141;28;5635;-81
2022/06/28 14:10:26;;;;;;;;;;;;;;;24.36;50.42;96832.31;4202055;28;5773;-84
2022/06/28 14:12:30;;;;;;;;;;;;;;;24.39;50.79;96829.03;4202009;28;5824;-74
2022/06/28 14:14:33;;;;;;;;;;;;;;;24.43;50.79;96826.56;4201702;28;5642;-73
2022/06/28 14:16:36;;;;;;;;;;;;;;;24.41;50.78;96844.16;4201152;28;5656;-73
2022/06/28 14:18:41;;;;;;;;;;;;;;;24.37;50.43;96835.81;4199222;28;5647;-74
2022/06/28 14:20:44;;;;;;;;;;;;;;;24.42;50.35;96824.16;4200531;28;5709;-71
2022/06/28 14:22:47;;;;;;;;;;;;;;;24.45;50.26;96820.88;4194455;28;5913;-72
2022/06/28 14:24:50;;;;;;;;;;;;;;;24.50;50.45;96826.25;4200539;28;5748;-73
2022/06/28 14:26:55;;;;;;;;;;;;;;;24.44;50.60;96822.78;4198889;28;5913;-70
2022/06/28 14:29:00;;;;;;;;;;;;;;;24.53;50.39;96828.41;4198137;28;5848;-80
2022/06/28 14:31:03;;;;;;;;;;;;;;;24.54;50.31;96819.19;4198116;28;5636;-76
2022/06/28 14:33:26;;;;;;;;;;;;;;;24.49;50.69;96816.53;4198099;28;5694;-79
2022/06/28 14:35:31;;;;;;;;;;;;;;;24.51;50.59;96807.06;4199915;28;5778;-78
2022/06/28 14:37:53;;;;;;;;;;;;;;;24.55;50.58;96812.69;4191063;28;5623;-71
2022/06/28 14:39:56;;;;;;;;;;;;;;;24.56;50.54;96809.72;4195305;28;5630;-72
2022/06/28 14:42:02;;;;;;;;;;;;;;;24.55;50.36;96807.28;4198961;28;5761;-73
2022/06/28 14:44:05;;;;;;;;;;;;;;;24.47;50.88;96799.81;4199891;28;5655;-73
2022/06/28 14:46:08;;;;;;;;;;;;;;;24.51;50.99;96806.25;4195836;28;5638;-71
2022/06/28 14:48:11;;;;;;;;;;;;;;;24.61;50.71;96808.88;4199828;28;5623;-73
2022/06/28 14:50:14;;;;;;;;;;;;;;;24.73;50.72;96808.50;4192814;28;5721;-72
2022/06/28 14:52:19;;;;;;;;;;;;;;;24.76;50.25;96813.34;4199075;28;5800;-72